createdAt,value
2019-05-19T00:01:41.589Z,16.06
2019-05-19T00:04:18.047Z,15.90
2019-05-19T00:06:54.523Z,15.74
2019-05-19T00:09:31.674Z,15.59
2019-05-19T00:12:08.109Z,15.53
2019-05-19T00:14:44.918Z,15.50
2019-05-19T00:17:21.892Z,15.41
2019-05-19T00:19:58.589Z,15.39
2019-05-19T00:22:35.048Z,15.41
2019-05-19T00:25:10.201Z,15.36
2019-05-19T00:27:46.327Z,15.30
2019-05-19T00:30:25.504Z,15.21
2019-05-19T00:33:25.935Z,15.18
2019-05-19T00:36:01.459Z,15.09
2019-05-19T00:38:36.832Z,15.08
2019-05-19T00:41:11.967Z,15.11
2019-05-19T00:43:47.478Z,15.09
2019-05-19T00:46:23.825Z,15.08
2019-05-19T00:49:02.627Z,15.08
2019-05-19T00:51:38.091Z,15.09
2019-05-19T00:54:14.936Z,15.10
2019-05-19T00:56:51.522Z,15.09
2019-05-19T00:59:27.846Z,15.09
2019-05-19T01:02:04.052Z,15.09
2019-05-19T01:04:39.139Z,15.07
2019-05-19T01:07:15.503Z,15.07
2019-05-19T01:09:50.656Z,15.06
2019-05-19T01:12:26.026Z,15.09
2019-05-19T01:15:01.501Z,15.07
2019-05-19T01:17:37.739Z,15.05
2019-05-19T01:20:14.121Z,15.02
2019-05-19T01:22:49.414Z,15.01
2019-05-19T01:25:24.552Z,14.99
2019-05-19T01:27:59.792Z,14.97
2019-05-19T01:30:35.178Z,14.95
2019-05-19T01:33:10.405Z,15.02
2019-05-19T01:35:45.848Z,14.99
2019-05-19T01:38:21.188Z,14.96
2019-05-19T01:40:56.531Z,14.92
2019-05-19T01:43:31.796Z,14.91
2019-05-19T01:46:07.164Z,14.88
2019-05-19T01:48:42.274Z,14.93
2019-05-19T01:51:18.549Z,14.89
2019-05-19T01:53:54.101Z,14.95
2019-05-19T01:56:29.380Z,14.90
2019-05-19T01:59:05.481Z,14.84
2019-05-19T02:01:41.605Z,14.83
2019-05-19T02:04:16.914Z,14.90
2019-05-19T02:06:52.272Z,14.90
2019-05-19T02:09:27.459Z,14.85
2019-05-19T02:12:02.641Z,14.81
2019-05-19T02:14:38.745Z,14.78
2019-05-19T02:17:14.114Z,14.77
2019-05-19T02:19:49.464Z,14.72
2019-05-19T02:22:24.735Z,14.68
2019-05-19T02:25:00.963Z,14.68
2019-05-19T02:27:42.942Z,14.69
2019-05-19T02:30:48.583Z,14.69
2019-05-19T02:33:58.038Z,14.67
2019-05-19T02:36:45.338Z,14.57
2019-05-19T02:39:21.723Z,14.63
2019-05-19T02:41:57.820Z,14.64
2019-05-19T02:44:33.895Z,14.62
2019-05-19T02:47:10.592Z,14.53
2019-05-19T02:49:46.509Z,14.49
2019-05-19T02:52:21.983Z,14.46
2019-05-19T02:54:57.289Z,14.37
2019-05-19T02:57:34.079Z,14.28
2019-05-19T03:00:11.482Z,14.24
2019-05-19T03:02:46.550Z,14.24
2019-05-19T03:05:22.063Z,14.24
2019-05-19T03:07:57.486Z,14.26
2019-05-19T03:10:32.643Z,14.21
2019-05-19T03:13:07.905Z,14.16
2019-05-19T03:15:43.190Z,14.19
2019-05-19T03:18:19.635Z,14.16
2019-05-19T03:21:09.942Z,14.14
2019-05-19T03:23:31.591Z,14.13
2019-05-19T03:26:06.844Z,14.15
2019-05-19T03:28:42.098Z,14.19
2019-05-19T03:31:18.917Z,14.23
2019-05-19T03:33:55.642Z,14.30
2019-05-19T03:36:31.731Z,14.28
2019-05-19T03:39:07.878Z,14.31
2019-05-19T03:41:43.022Z,14.34
2019-05-19T03:44:18.442Z,14.38
2019-05-19T03:46:53.548Z,14.42
2019-05-19T03:49:28.823Z,14.45
2019-05-19T03:52:03.924Z,14.53
2019-05-19T03:54:39.066Z,14.58
2019-05-19T03:57:14.352Z,14.64
2019-05-19T03:59:49.639Z,14.68
2019-05-19T04:02:24.980Z,14.74
2019-05-19T04:05:00.250Z,14.81
2019-05-19T04:07:36.445Z,14.85
2019-05-19T04:10:12.172Z,14.89
2019-05-19T04:16:40.801Z,14.96
2019-05-19T04:19:15.918Z,15.01
2019-05-19T04:21:51.254Z,15.06
2019-05-19T04:24:29.028Z,15.08
2019-05-19T04:27:04.279Z,15.16
2019-05-19T04:29:39.703Z,15.23
2019-05-19T04:32:15.305Z,15.30
2019-05-19T04:34:52.391Z,15.37
2019-05-19T04:37:27.806Z,15.45
2019-05-19T04:40:03.156Z,15.56
2019-05-19T04:42:38.256Z,15.67
2019-05-19T04:45:13.599Z,15.78
2019-05-19T04:47:48.801Z,15.90
2019-05-19T04:50:24.906Z,16.00
2019-05-19T04:53:00.961Z,16.06
2019-05-19T04:55:36.054Z,16.13
2019-05-19T04:58:13.212Z,16.26
2019-05-19T05:00:49.665Z,16.36
2019-05-19T05:03:25.717Z,16.41
2019-05-19T05:06:01.045Z,16.52
2019-05-19T05:08:36.484Z,16.57
2019-05-19T05:11:11.613Z,16.59
2019-05-19T05:13:46.766Z,16.63
2019-05-19T05:16:22.024Z,16.73
2019-05-19T05:18:57.539Z,16.82
2019-05-19T05:21:32.765Z,16.94
2019-05-19T05:24:09.038Z,17.06
2019-05-19T05:26:44.529Z,17.13
2019-05-19T05:29:19.873Z,17.22
2019-05-19T05:31:55.117Z,17.25
2019-05-19T05:37:09.639Z,17.27
2019-05-19T05:39:44.949Z,17.17
2019-05-19T05:42:20.355Z,17.18
2019-05-19T05:44:55.805Z,17.22
2019-05-19T05:47:30.918Z,17.33
2019-05-19T05:50:07.723Z,17.41
2019-05-19T05:52:42.825Z,17.47
2019-05-19T05:55:18.340Z,17.52
2019-05-19T05:57:57.456Z,17.61
2019-05-19T06:00:32.798Z,17.73
2019-05-19T06:03:09.956Z,17.83
2019-05-19T06:05:45.064Z,17.88
2019-05-19T06:08:20.943Z,17.89
2019-05-19T06:10:57.190Z,18.00
2019-05-19T06:13:32.677Z,18.06
2019-05-19T06:16:08.162Z,18.15
2019-05-19T06:18:43.986Z,18.22
2019-05-19T06:21:20.539Z,18.30
2019-05-19T06:23:55.737Z,18.47
2019-05-19T06:26:31.964Z,18.58
2019-05-19T06:29:12.865Z,18.62
2019-05-19T06:31:52.366Z,18.80
2019-05-19T06:34:30.685Z,19.00
2019-05-19T06:37:06.094Z,19.10
2019-05-19T06:39:42.150Z,19.19
2019-05-19T06:42:31.135Z,19.21
2019-05-19T06:45:07.746Z,19.20
2019-05-19T06:47:49.793Z,19.33
2019-05-19T06:50:25.359Z,19.41
2019-05-19T06:53:14.196Z,19.47
2019-05-19T06:55:43.131Z,19.60
2019-05-19T06:58:18.320Z,19.72
2019-05-19T07:00:53.791Z,19.94
2019-05-19T07:03:28.991Z,20.10
2019-05-19T07:06:15.026Z,20.24
2019-05-19T07:08:54.049Z,20.45
2019-05-19T07:11:33.832Z,20.60
2019-05-19T07:17:33.367Z,20.97
2019-05-19T07:23:50.155Z,21.54
2019-05-19T07:26:41.832Z,21.68
2019-05-19T07:29:39.184Z,21.94
2019-05-19T07:32:35.551Z,22.20
2019-05-19T07:35:15.683Z,22.43
2019-05-19T07:37:54.162Z,23.49
2019-05-19T07:40:32.562Z,24.84
2019-05-19T07:43:15.944Z,26.32
2019-05-19T07:45:58.852Z,27.60
2019-05-19T07:48:43.315Z,28.40
2019-05-19T07:51:36.054Z,29.42
2019-05-19T07:54:17.224Z,30.17
2019-05-19T07:57:04.406Z,30.81
2019-05-19T08:03:17.190Z,30.48
2019-05-19T08:06:15.626Z,30.56
2019-05-19T08:09:05.714Z,30.48
2019-05-19T08:11:51.103Z,30.76
2019-05-19T08:18:17.810Z,32.32
2019-05-19T08:27:47.560Z,31.42
2019-05-19T08:49:34.577Z,33.43
2019-05-19T08:52:16.207Z,32.50
2019-05-19T08:54:55.682Z,31.59
2019-05-19T08:57:52.153Z,31.20
2019-05-19T09:00:53.081Z,31.03
2019-05-19T09:03:38.768Z,31.03
2019-05-19T09:06:24.784Z,31.17
2019-05-19T09:14:53.408Z,32.48
2019-05-19T09:20:16.700Z,31.92
2019-05-19T09:32:22.892Z,32.16
2019-05-19T09:35:12.487Z,31.64
2019-05-19T09:37:59.323Z,32.18
2019-05-19T09:40:45.026Z,32.22
2019-05-19T09:43:21.818Z,33.14
2019-05-19T10:02:13.611Z,32.60
2019-05-19T10:04:59.935Z,33.13
2019-05-19T10:14:25.566Z,33.98
2019-05-19T10:17:26.031Z,33.10
2019-05-19T10:26:20.702Z,34.29
2019-05-19T10:29:07.161Z,33.22
2019-05-19T10:42:38.769Z,34.27
2019-05-19T11:23:49.782Z,33.64
2019-05-19T11:48:50.840Z,31.90
2019-05-19T12:01:17.931Z,33.89
2019-05-19T12:07:28.781Z,35.19
2019-05-19T12:10:21.407Z,35.37
2019-05-19T12:35:49.328Z,34.38
2019-05-19T13:27:31.203Z,34.62
2019-05-19T14:21:37.717Z,26.13
2019-05-19T14:30:48.467Z,29.50
2019-05-19T14:33:46.939Z,28.16
2019-05-19T14:36:48.762Z,26.95
2019-05-19T14:39:48.027Z,26.49
2019-05-19T14:42:58.974Z,26.33
2019-05-19T14:49:02.401Z,26.13
2019-05-19T14:51:41.530Z,25.70
2019-05-19T14:54:20.775Z,25.47
2019-05-19T14:56:59.960Z,25.39
2019-05-19T14:59:36.357Z,25.15
2019-05-19T15:02:12.984Z,24.84
2019-05-19T15:04:48.307Z,24.61
2019-05-19T15:07:26.862Z,24.47
2019-05-19T15:10:02.009Z,24.23
2019-05-19T15:12:39.892Z,24.27
2019-05-19T15:15:18.045Z,24.28
2019-05-19T15:17:53.762Z,24.21
2019-05-19T15:20:29.541Z,24.16
2019-05-19T15:23:05.817Z,24.24
2019-05-19T15:25:50.596Z,24.32
2019-05-19T15:28:26.288Z,24.40
2019-05-19T15:31:01.772Z,24.62
2019-05-19T15:33:38.777Z,24.88
2019-05-19T15:36:18.357Z,25.03
2019-05-19T15:38:58.112Z,25.09
2019-05-19T15:41:33.275Z,25.25
2019-05-19T15:44:11.059Z,25.53
2019-05-19T15:46:52.619Z,25.71
2019-05-19T15:49:33.912Z,26.22
2019-05-19T15:52:14.796Z,26.06
2019-05-19T15:54:54.905Z,25.59
2019-05-19T15:57:39.173Z,25.07
2019-05-19T16:00:17.131Z,24.90
2019-05-19T16:02:58.116Z,24.67
2019-05-19T16:05:36.104Z,24.63
2019-05-19T16:08:13.281Z,24.55
2019-05-19T16:10:50.189Z,24.56
2019-05-19T16:13:28.503Z,24.37
2019-05-19T16:16:06.202Z,24.27
2019-05-19T16:18:41.742Z,24.14
2019-05-19T16:21:18.071Z,23.98
2019-05-19T16:23:53.439Z,23.90
2019-05-19T16:26:30.876Z,23.86
2019-05-19T16:29:06.218Z,23.82
2019-05-19T16:31:41.713Z,23.82
2019-05-19T16:34:17.407Z,23.90
2019-05-19T16:36:54.589Z,24.39
2019-05-19T16:39:31.639Z,25.10
2019-05-19T16:42:06.706Z,25.94
2019-05-19T16:44:42.318Z,26.20
2019-05-19T16:47:30.023Z,26.25
2019-05-19T16:50:15.772Z,25.98
2019-05-19T16:52:50.970Z,25.93
2019-05-19T16:55:31.240Z,25.88
2019-05-19T16:58:20.609Z,25.29
2019-05-19T17:00:58.053Z,25.19
2019-05-19T17:03:41.192Z,24.88
2019-05-19T17:06:18.774Z,24.46
2019-05-19T17:08:58.104Z,24.11
2019-05-19T17:11:37.094Z,23.80
2019-05-19T17:14:12.274Z,23.56
2019-05-19T17:16:48.836Z,23.37
2019-05-19T17:19:33.865Z,23.29
2019-05-19T17:22:11.470Z,23.22
2019-05-19T17:24:46.696Z,23.19
2019-05-19T17:27:23.652Z,23.16
2019-05-19T17:29:58.859Z,23.07
2019-05-19T17:32:37.961Z,23.05
2019-05-19T17:35:15.695Z,23.06
2019-05-19T17:37:52.834Z,23.02
2019-05-19T17:40:28.034Z,22.96
2019-05-19T17:43:03.256Z,22.93
2019-05-19T17:45:39.754Z,22.92
2019-05-19T17:48:26.050Z,22.94
2019-05-19T17:50:54.877Z,22.88
2019-05-19T17:53:36.181Z,22.88
2019-05-19T17:56:11.487Z,22.88
2019-05-19T17:58:47.092Z,22.87
2019-05-19T18:01:26.305Z,22.86
2019-05-19T18:04:04.032Z,22.91
2019-05-19T18:06:41.633Z,22.92
2019-05-19T18:09:19.446Z,22.88
2019-05-19T18:11:55.599Z,22.90
2019-05-19T18:14:31.525Z,22.83
2019-05-19T18:17:06.847Z,22.74
2019-05-19T18:19:41.969Z,22.65
2019-05-19T18:22:17.716Z,22.61
2019-05-19T18:24:53.950Z,22.52
2019-05-19T18:27:29.600Z,22.43
2019-05-19T18:30:05.717Z,22.39
2019-05-19T18:32:41.353Z,22.41
2019-05-19T18:35:17.659Z,22.37
2019-05-19T18:37:54.314Z,22.34
2019-05-19T18:40:29.622Z,22.32
2019-05-19T18:43:07.609Z,22.30
2019-05-19T18:45:43.852Z,22.31
2019-05-19T18:48:23.086Z,22.31
2019-05-19T18:50:57.104Z,22.32
2019-05-19T18:53:39.039Z,22.33
2019-05-19T18:56:46.730Z,22.31
2019-05-19T18:59:25.196Z,22.26
2019-05-19T19:02:07.273Z,22.23
2019-05-19T19:04:43.571Z,22.13
2019-05-19T19:07:19.253Z,22.03
2019-05-19T19:09:54.746Z,22.02
2019-05-19T19:12:30.177Z,21.97
2019-05-19T19:15:08.604Z,21.90
2019-05-19T19:17:45.337Z,21.87
2019-05-19T19:20:21.890Z,21.82
2019-05-19T19:22:56.997Z,21.76
2019-05-19T19:25:32.433Z,21.73
2019-05-19T19:28:09.901Z,21.69
2019-05-19T19:30:45.409Z,21.67
2019-05-19T19:33:24.919Z,21.64
2019-05-19T19:36:01.038Z,21.60
2019-05-19T19:38:36.817Z,21.56
2019-05-19T19:41:11.957Z,21.51
2019-05-19T19:43:49.450Z,21.47
2019-05-19T19:46:27.089Z,21.40
2019-05-19T19:49:02.193Z,21.32
2019-05-19T19:51:38.394Z,21.27
2019-05-19T19:54:17.106Z,21.23
2019-05-19T19:56:53.342Z,21.16
2019-05-19T19:59:29.021Z,21.12
2019-05-19T20:02:04.519Z,21.05
2019-05-19T20:04:39.934Z,21.01
2019-05-19T20:07:15.553Z,20.98
2019-05-19T20:09:51.313Z,20.94
2019-05-19T20:12:28.399Z,20.91
2019-05-19T20:15:04.015Z,20.88
2019-05-19T20:17:40.831Z,20.87
2019-05-19T20:20:16.084Z,20.84
2019-05-19T20:22:56.874Z,20.76
2019-05-19T20:25:32.562Z,20.76
2019-05-19T20:28:09.107Z,20.85
2019-05-19T20:30:45.309Z,20.78
2019-05-19T20:33:20.436Z,20.78
2019-05-19T20:35:57.211Z,20.85
2019-05-19T20:38:33.410Z,20.88
2019-05-19T20:41:09.478Z,20.89
2019-05-19T20:43:45.704Z,20.87
2019-05-19T20:46:20.927Z,20.88
2019-05-19T20:48:56.981Z,20.90
2019-05-19T20:51:33.589Z,20.87
2019-05-19T20:54:09.936Z,20.87
2019-05-19T20:56:55.113Z,20.82
2019-05-19T20:59:42.745Z,20.77
2019-05-19T21:02:34.551Z,20.75
2019-05-19T21:05:31.320Z,20.68
2019-05-19T21:08:19.539Z,20.63
2019-05-19T21:10:55.915Z,20.63
2019-05-19T21:13:31.333Z,20.58
2019-05-19T21:16:08.612Z,20.53
2019-05-19T21:18:45.008Z,20.44
2019-05-19T21:21:20.519Z,20.36
2019-05-19T21:23:57.887Z,20.29
2019-05-19T21:26:35.016Z,20.24
2019-05-19T21:29:11.095Z,20.15
2019-05-19T21:31:52.684Z,20.09
2019-05-19T21:34:33.587Z,20.04
2019-05-19T21:37:08.939Z,20.00
2019-05-19T21:39:46.074Z,19.93
2019-05-19T21:42:23.670Z,19.86
2019-05-19T21:45:01.805Z,19.82
2019-05-19T21:47:39.187Z,19.75
2019-05-19T21:50:14.485Z,19.69
2019-05-19T21:52:51.976Z,19.62
2019-05-19T21:55:28.290Z,19.59
2019-05-19T21:58:04.539Z,19.50
2019-05-19T22:00:39.978Z,19.45
2019-05-19T22:03:17.462Z,19.40
2019-05-19T22:05:53.869Z,19.34
2019-05-19T22:08:29.215Z,19.27
2019-05-19T22:11:04.719Z,19.24
2019-05-19T22:13:40.979Z,19.17
2019-05-19T22:16:16.237Z,19.09
2019-05-19T22:18:52.567Z,19.11
2019-05-19T22:21:30.086Z,19.05
2019-05-19T22:24:05.257Z,19.00
2019-05-19T22:26:41.464Z,18.97
2019-05-19T22:29:16.820Z,18.91
2019-05-19T22:31:52.117Z,18.89
2019-05-19T22:34:28.869Z,18.87
2019-05-19T22:37:05.303Z,18.85
2019-05-19T22:39:41.799Z,18.84
2019-05-19T22:42:17.841Z,18.78
2019-05-19T22:44:53.407Z,18.69
2019-05-19T22:47:29.398Z,18.64
2019-05-19T22:50:08.557Z,18.59
2019-05-19T22:52:49.030Z,18.53
2019-05-19T22:55:24.514Z,18.48
2019-05-19T22:58:00.120Z,18.41
2019-05-19T23:00:36.633Z,18.37
2019-05-19T23:03:16.941Z,18.30
2019-05-19T23:05:52.033Z,18.28
2019-05-19T23:08:27.171Z,18.22
2019-05-19T23:11:06.260Z,18.17
2019-05-19T23:13:41.414Z,18.15
2019-05-19T23:16:16.535Z,18.12
2019-05-19T23:18:52.735Z,18.06
2019-05-19T23:21:28.177Z,17.98
2019-05-19T23:24:05.441Z,17.99
2019-05-19T23:26:45.160Z,17.99
2019-05-19T23:29:20.431Z,18.01
2019-05-19T23:32:06.692Z,17.92
2019-05-19T23:34:34.553Z,17.94
2019-05-19T23:37:09.812Z,17.91
2019-05-19T23:39:46.315Z,17.86
2019-05-19T23:42:22.853Z,17.89
2019-05-19T23:44:57.885Z,17.83
2019-05-19T23:47:33.005Z,17.82
2019-05-19T23:50:10.211Z,17.72
2019-05-19T23:52:45.640Z,17.72
2019-05-19T23:55:22.746Z,17.70
2019-05-19T23:57:57.875Z,17.67
